createdAt,value
2018-07-06T00:02:38.012Z,99.90
2018-07-06T00:05:17.107Z,99.90
2018-07-06T00:07:56.322Z,99.90
2018-07-06T00:10:35.869Z,99.90
2018-07-06T00:13:17.341Z,99.90
2018-07-06T00:15:56.596Z,99.90
2018-07-06T00:18:36.139Z,99.90
2018-07-06T00:21:15.293Z,99.90
2018-07-06T00:23:54.426Z,99.90
2018-07-06T00:26:34.262Z,99.90
2018-07-06T00:29:13.438Z,99.90
2018-07-06T00:31:52.910Z,99.90
2018-07-06T00:34:32.801Z,99.90
2018-07-06T00:39:45.430Z,99.90
2018-07-06T00:44:59.040Z,99.90
2018-07-06T00:47:38.043Z,99.90
2018-07-06T00:50:18.221Z,99.90
2018-07-06T00:52:57.332Z,99.90
2018-07-06T00:55:36.395Z,99.90
2018-07-06T00:58:15.705Z,99.90
2018-07-06T01:00:55.142Z,99.90
2018-07-06T01:03:34.317Z,99.90
2018-07-06T01:08:48.028Z,99.90
2018-07-06T01:11:28.377Z,99.90
2018-07-06T01:14:10.512Z,99.90
2018-07-06T01:16:49.573Z,99.90
2018-07-06T01:19:28.946Z,99.90
2018-07-06T01:22:08.268Z,99.90
2018-07-06T01:24:48.480Z,99.90
2018-07-06T01:30:01.386Z,99.90
2018-07-06T01:32:40.518Z,99.90
2018-07-06T01:35:19.718Z,99.90
2018-07-06T01:37:58.779Z,99.90
2018-07-06T01:40:38.078Z,99.90
2018-07-06T01:43:17.382Z,99.90
2018-07-06T01:45:56.740Z,99.90
2018-07-06T01:48:36.103Z,99.90
2018-07-06T01:53:49.210Z,99.90
2018-07-06T01:56:28.485Z,99.90
2018-07-06T01:59:08.006Z,99.90
2018-07-06T02:01:47.218Z,99.90
2018-07-06T02:04:26.550Z,99.90
2018-07-06T02:07:05.872Z,99.90
2018-07-06T02:09:45.389Z,99.90
2018-07-06T02:12:24.494Z,99.90
2018-07-06T02:15:03.578Z,99.90
2018-07-06T02:17:42.697Z,99.90
2018-07-06T02:20:22.214Z,99.90
2018-07-06T02:23:02.432Z,99.90
2018-07-06T02:25:41.516Z,99.90
2018-07-06T02:28:20.585Z,99.90
2018-07-06T02:31:00.047Z,99.90
2018-07-06T02:33:39.229Z,99.90
2018-07-06T02:36:18.511Z,99.90
2018-07-06T02:39:01.820Z,99.90
2018-07-06T02:41:40.779Z,99.90
2018-07-06T02:44:20.018Z,99.90
2018-07-06T02:46:59.517Z,99.90
2018-07-06T02:52:12.322Z,99.90
2018-07-06T02:54:51.591Z,99.90
2018-07-06T02:57:30.775Z,99.90
2018-07-06T03:00:13.289Z,99.90
2018-07-06T03:02:52.546Z,99.90
2018-07-06T03:05:32.203Z,99.90
2018-07-06T03:08:11.604Z,99.90
2018-07-06T03:10:51.229Z,99.90
2018-07-06T03:13:30.445Z,99.90
2018-07-06T03:16:10.249Z,99.90
2018-07-06T03:18:51.442Z,99.90
2018-07-06T03:21:30.730Z,99.90
2018-07-06T03:24:11.241Z,99.90
2018-07-06T03:26:50.531Z,99.90
2018-07-06T03:29:30.090Z,99.90
2018-07-06T03:32:09.295Z,99.90
2018-07-06T03:34:48.947Z,99.90
2018-07-06T03:37:28.337Z,99.90
2018-07-06T03:40:07.721Z,99.90
2018-07-06T03:42:47.443Z,99.90
2018-07-06T03:45:26.465Z,99.90
2018-07-06T03:48:05.837Z,99.90
2018-07-06T03:50:44.957Z,99.90
2018-07-06T03:53:25.405Z,99.90
2018-07-06T03:56:05.814Z,99.90
2018-07-06T03:58:44.912Z,99.90
2018-07-06T04:01:24.097Z,99.90
2018-07-06T04:04:03.322Z,99.90
2018-07-06T04:06:42.583Z,99.90
2018-07-06T04:11:55.237Z,99.90
2018-07-06T04:14:34.398Z,99.90
2018-07-06T04:17:13.842Z,99.90
2018-07-06T04:19:53.773Z,99.90
2018-07-06T04:22:34.649Z,99.90
2018-07-06T04:25:13.739Z,99.90
2018-07-06T04:27:53.777Z,99.90
2018-07-06T04:30:32.983Z,99.90
2018-07-06T04:33:12.080Z,99.90
2018-07-06T04:35:51.416Z,99.90
2018-07-06T04:38:30.608Z,99.90
2018-07-06T04:41:10.678Z,99.90
2018-07-06T04:43:50.227Z,99.90
2018-07-06T04:46:31.604Z,99.90
2018-07-06T04:49:10.941Z,99.90
2018-07-06T04:51:50.330Z,99.90
2018-07-06T04:54:29.654Z,99.90
2018-07-06T04:57:08.846Z,99.90
2018-07-06T04:59:48.151Z,99.90
2018-07-06T05:02:27.258Z,99.90
2018-07-06T05:05:06.617Z,99.90
2018-07-06T05:10:19.444Z,99.90
2018-07-06T05:12:58.977Z,99.90
2018-07-06T05:15:38.069Z,99.90
2018-07-06T05:18:17.974Z,99.90
2018-07-06T05:20:57.054Z,99.90
2018-07-06T05:23:36.582Z,99.90
2018-07-06T05:26:15.723Z,99.90
2018-07-06T05:28:56.615Z,99.90
2018-07-06T05:31:36.165Z,99.90
2018-07-06T05:34:15.354Z,99.90
2018-07-06T05:36:54.487Z,99.90
2018-07-06T05:39:34.455Z,99.90
2018-07-06T05:42:14.511Z,99.90
2018-07-06T05:44:54.119Z,99.90
2018-07-06T05:47:34.320Z,99.90
2018-07-06T05:50:14.586Z,99.90
2018-07-06T05:52:55.280Z,99.90
2018-07-06T05:55:34.458Z,99.90
2018-07-06T05:58:13.952Z,99.90
2018-07-06T06:00:53.281Z,99.90
2018-07-06T06:03:33.671Z,99.90
2018-07-06T06:06:13.234Z,99.90
2018-07-06T06:08:40.632Z,99.90
2018-07-06T06:11:08.686Z,99.90
2018-07-06T06:13:36.750Z,99.90
2018-07-06T06:18:32.857Z,99.90
2018-07-06T06:21:00.858Z,99.90
2018-07-06T06:23:31.370Z,99.90
2018-07-06T06:25:59.389Z,99.90
2018-07-06T06:28:27.602Z,99.90
2018-07-06T06:33:24.247Z,99.90
2018-07-06T06:35:53.382Z,99.90
2018-07-06T06:40:50.089Z,99.90
2018-07-06T06:43:19.250Z,99.90
2018-07-06T06:45:48.770Z,99.90
2018-07-06T06:48:17.340Z,99.90
2018-07-06T06:50:45.885Z,99.80
2018-07-06T06:53:13.969Z,97.60
2018-07-06T06:55:43.226Z,95.10
2018-07-06T06:58:12.095Z,92.80
2018-07-06T07:00:43.206Z,91.60
2018-07-06T07:03:12.839Z,90.50
2018-07-06T07:05:41.811Z,90.60
2018-07-06T07:08:10.929Z,90.80
2018-07-06T07:10:39.250Z,90.70
2018-07-06T07:13:07.278Z,90.10
2018-07-06T07:15:36.373Z,88.70
2018-07-06T07:18:04.594Z,88.10
2018-07-06T07:20:33.258Z,85.60
2018-07-06T07:23:01.959Z,85.80
2018-07-06T07:25:30.233Z,85.90
2018-07-06T07:27:58.953Z,85.40
2018-07-06T07:30:29.086Z,87.50
2018-07-06T07:32:58.339Z,89.50
2018-07-06T07:35:26.798Z,88.00
2018-07-06T07:37:55.105Z,84.90
2018-07-06T07:40:23.259Z,83.00
2018-07-06T07:42:51.532Z,81.70
2018-07-06T07:45:20.142Z,80.60
2018-07-06T07:47:49.065Z,78.00
2018-07-06T07:50:17.308Z,78.10
2018-07-06T07:54:59.363Z,78.50
2018-07-06T07:57:27.468Z,79.80
2018-07-06T07:59:56.421Z,84.10
2018-07-06T08:02:26.291Z,84.70
2018-07-06T08:04:54.723Z,84.40
2018-07-06T08:07:24.602Z,82.50
2018-07-06T08:09:55.635Z,80.50
2018-07-06T08:14:53.300Z,78.10
2018-07-06T08:17:21.882Z,76.60
2018-07-06T08:19:50.186Z,76.20
2018-07-06T08:22:19.552Z,76.00
2018-07-06T08:24:47.715Z,78.00
2018-07-06T08:27:17.229Z,80.00
2018-07-06T08:29:45.778Z,85.50
2018-07-06T08:32:16.217Z,84.70
2018-07-06T08:34:56.462Z,83.50
2018-07-06T08:37:41.233Z,84.30
2018-07-06T08:40:11.349Z,86.60
2018-07-06T08:42:40.752Z,87.40
2018-07-06T08:45:09.469Z,84.30
2018-07-06T08:47:37.853Z,81.70
2018-07-06T08:50:06.439Z,81.90
2018-07-06T08:52:35.369Z,81.50
2018-07-06T08:55:04.261Z,83.00
2018-07-06T08:57:33.015Z,80.70
2018-07-06T09:00:01.351Z,77.60
2018-07-06T09:02:30.307Z,76.80
2018-07-06T09:05:04.429Z,76.30
2018-07-06T09:07:32.634Z,79.20
2018-07-06T09:10:01.226Z,80.80
2018-07-06T09:12:30.770Z,80.00
2018-07-06T09:15:00.280Z,78.90
2018-07-06T09:17:30.343Z,78.60
2018-07-06T09:20:00.488Z,77.00
2018-07-06T09:22:28.646Z,76.80
2018-07-06T09:24:58.231Z,74.30
2018-07-06T09:27:26.386Z,72.90
2018-07-06T09:29:55.548Z,77.20
2018-07-06T09:32:23.683Z,77.40
2018-07-06T09:34:51.866Z,75.20
2018-07-06T09:37:19.870Z,74.30
2018-07-06T09:39:51.005Z,76.20
2018-07-06T09:42:19.297Z,74.50
2018-07-06T09:44:47.422Z,75.30
2018-07-06T09:47:15.712Z,74.90
2018-07-06T09:49:48.514Z,74.60
2018-07-06T09:52:16.545Z,73.90
2018-07-06T09:54:44.788Z,73.10
2018-07-06T09:57:13.339Z,74.30
2018-07-06T09:59:41.378Z,76.70
2018-07-06T10:02:09.437Z,78.90
2018-07-06T10:04:37.509Z,79.80
2018-07-06T10:07:08.336Z,82.50
2018-07-06T10:09:36.731Z,82.90
2018-07-06T10:12:05.210Z,83.10
2018-07-06T10:14:33.328Z,85.30
2018-07-06T10:17:01.977Z,85.00
2018-07-06T10:19:30.405Z,82.60
2018-07-06T10:21:58.753Z,81.80
2018-07-06T10:24:27.071Z,82.30
2018-07-06T10:26:55.749Z,83.10
2018-07-06T10:30:33.730Z,83.00
2018-07-06T10:33:03.876Z,83.90
2018-07-06T10:35:35.560Z,85.00
2018-07-06T10:38:03.793Z,85.40
2018-07-06T10:43:07.360Z,86.90
2018-07-06T10:45:35.749Z,88.70
2018-07-06T10:48:04.331Z,87.40
2018-07-06T10:50:32.277Z,88.10
2018-07-06T10:53:00.611Z,87.00
2018-07-06T10:55:29.247Z,88.30
2018-07-06T10:57:58.351Z,88.90
2018-07-06T11:00:26.507Z,88.00
2018-07-06T11:02:55.012Z,87.40
2018-07-06T11:05:23.519Z,87.30
2018-07-06T11:07:52.010Z,89.70
2018-07-06T11:10:20.248Z,89.40
2018-07-06T11:12:48.468Z,88.50
2018-07-06T11:15:17.258Z,88.00
2018-07-06T11:17:46.807Z,88.90
2018-07-06T11:20:14.961Z,88.80
2018-07-06T11:22:42.974Z,87.40
2018-07-06T11:25:11.322Z,85.70
2018-07-06T11:27:40.038Z,83.70
2018-07-06T11:30:09.619Z,83.20
2018-07-06T11:32:39.022Z,82.10
2018-07-06T11:35:07.787Z,82.00
2018-07-06T11:37:38.044Z,80.80
2018-07-06T11:40:07.338Z,80.60
2018-07-06T11:42:35.563Z,79.20
2018-07-06T11:45:05.317Z,78.90
2018-07-06T11:47:33.762Z,79.20
2018-07-06T11:50:03.131Z,78.90
2018-07-06T11:52:31.270Z,79.00
2018-07-06T11:54:59.732Z,77.70
2018-07-06T11:57:28.014Z,76.00
2018-07-06T11:59:56.289Z,74.90
2018-07-06T12:02:25.729Z,76.50
2018-07-06T12:04:54.023Z,77.70
2018-07-06T12:07:22.448Z,77.90
2018-07-06T12:09:50.649Z,78.50
2018-07-06T12:12:20.707Z,77.20
2018-07-06T12:14:49.026Z,78.40
2018-07-06T12:17:17.618Z,78.40
2018-07-06T12:19:49.793Z,78.40
2018-07-06T12:22:17.973Z,77.50
2018-07-06T12:24:46.128Z,77.50
2018-07-06T12:27:14.339Z,77.60
2018-07-06T12:29:42.566Z,76.70
2018-07-06T12:32:10.555Z,78.00
2018-07-06T12:34:38.614Z,77.60
2018-07-06T12:37:06.916Z,77.30
2018-07-06T12:39:35.000Z,77.00
2018-07-06T12:42:03.363Z,76.50
2018-07-06T12:44:32.558Z,75.80
2018-07-06T12:47:00.805Z,73.20
2018-07-06T12:49:29.366Z,72.50
2018-07-06T12:51:57.669Z,73.70
2018-07-06T12:54:25.893Z,73.80
2018-07-06T12:56:54.014Z,75.00
2018-07-06T12:59:22.529Z,74.80
2018-07-06T13:01:50.586Z,74.90
2018-07-06T13:04:19.103Z,73.10
2018-07-06T13:06:48.614Z,72.50
2018-07-06T13:09:17.037Z,73.10
2018-07-06T13:11:45.338Z,74.50
2018-07-06T13:14:14.224Z,74.60
2018-07-06T13:16:42.664Z,75.20
2018-07-06T13:19:12.707Z,75.00
2018-07-06T13:21:44.262Z,75.50
2018-07-06T13:24:13.562Z,75.70
2018-07-06T13:26:41.697Z,76.20
2018-07-06T13:29:10.301Z,75.30
2018-07-06T13:31:38.481Z,76.00
2018-07-06T13:34:06.682Z,75.50
2018-07-06T13:36:34.765Z,74.60
2018-07-06T13:39:03.957Z,73.80
2018-07-06T13:41:33.937Z,72.00
2018-07-06T13:44:03.281Z,71.60
2018-07-06T13:46:32.343Z,71.20
2018-07-06T13:49:01.572Z,72.20
2018-07-06T13:51:31.103Z,74.70
2018-07-06T13:54:02.357Z,74.80
2018-07-06T13:56:31.554Z,74.90
2018-07-06T13:58:59.893Z,73.10
2018-07-06T14:01:29.084Z,74.00
2018-07-06T14:03:57.339Z,74.10
2018-07-06T14:06:25.654Z,75.30
2018-07-06T14:08:54.402Z,75.30
2018-07-06T14:11:25.345Z,74.20
2018-07-06T14:13:54.234Z,73.60
2018-07-06T14:16:23.769Z,75.60
2018-07-06T14:18:51.862Z,77.50
2018-07-06T14:21:20.426Z,77.30
2018-07-06T14:23:58.653Z,76.50
2018-07-06T14:26:28.570Z,77.40
2018-07-06T14:28:56.873Z,76.00
2018-07-06T14:31:25.604Z,76.00
2018-07-06T14:33:53.855Z,74.90
2018-07-06T14:36:22.290Z,75.00
2018-07-06T14:38:51.714Z,74.70
2018-07-06T14:41:20.266Z,75.30
2018-07-06T14:43:48.386Z,74.70
2018-07-06T14:46:16.603Z,74.00
2018-07-06T14:48:44.899Z,73.90
2018-07-06T14:51:13.880Z,74.90
2018-07-06T14:53:41.966Z,73.40
2018-07-06T14:56:10.021Z,74.50
2018-07-06T14:58:38.279Z,74.20
2018-07-06T15:01:06.515Z,74.10
2018-07-06T15:03:34.857Z,74.20
2018-07-06T15:06:03.368Z,74.90
2018-07-06T15:08:32.677Z,74.50
2018-07-06T15:11:01.668Z,75.50
2018-07-06T15:13:29.958Z,75.80
2018-07-06T15:15:58.696Z,75.50
2018-07-06T15:18:27.342Z,75.70
2018-07-06T15:20:55.964Z,76.10
2018-07-06T15:23:24.753Z,75.40
2018-07-06T15:25:52.859Z,75.10
2018-07-06T15:28:20.998Z,75.80
2018-07-06T15:30:49.463Z,76.40
2018-07-06T15:33:18.595Z,76.40
2018-07-06T15:35:51.880Z,76.50
2018-07-06T15:38:20.348Z,76.70
2018-07-06T15:40:48.955Z,76.60
2018-07-06T15:43:17.332Z,76.10
2018-07-06T15:45:46.030Z,76.50
2018-07-06T15:48:14.614Z,76.40
2018-07-06T15:50:44.019Z,76.80
2018-07-06T15:53:12.451Z,76.60
2018-07-06T15:55:40.618Z,76.20
2018-07-06T15:58:09.343Z,76.20
2018-07-06T16:00:38.021Z,75.60
2018-07-06T16:03:06.534Z,75.30
2018-07-06T16:05:35.307Z,76.40
2018-07-06T16:08:04.471Z,76.10
2018-07-06T16:10:32.911Z,76.00
2018-07-06T16:13:02.268Z,75.20
2018-07-06T16:15:30.299Z,74.20
2018-07-06T16:20:30.395Z,72.70
2018-07-06T16:22:58.850Z,72.80
2018-07-06T16:25:27.717Z,72.80
2018-07-06T16:27:56.217Z,73.50
2018-07-06T16:30:24.386Z,74.00
2018-07-06T16:32:53.777Z,73.90
2018-07-06T16:35:21.868Z,74.10
2018-07-06T16:37:52.629Z,73.90
2018-07-06T16:40:22.012Z,74.60
2018-07-06T16:42:52.435Z,74.40
2018-07-06T16:45:22.765Z,74.40
2018-07-06T16:47:50.919Z,74.90
2018-07-06T16:50:24.965Z,74.30
2018-07-06T16:52:54.466Z,74.10
2018-07-06T16:55:26.000Z,73.50
2018-07-06T16:57:54.353Z,73.40
2018-07-06T17:00:25.107Z,74.30
2018-07-06T17:02:58.099Z,74.40
2018-07-06T17:05:28.654Z,74.40
2018-07-06T17:07:57.028Z,74.50
2018-07-06T17:10:25.674Z,74.20
2018-07-06T17:12:53.913Z,74.30
2018-07-06T17:15:22.855Z,74.00
2018-07-06T17:17:51.729Z,74.40
2018-07-06T17:20:19.774Z,74.70
2018-07-06T17:22:49.911Z,74.10
2018-07-06T17:25:18.323Z,74.00
2018-07-06T17:27:57.407Z,74.10
2018-07-06T17:30:28.676Z,73.90
2018-07-06T17:33:01.753Z,73.80
2018-07-06T17:35:29.914Z,74.00
2018-07-06T17:37:58.244Z,74.30
2018-07-06T17:40:28.334Z,74.50
2018-07-06T17:42:56.690Z,73.80
2018-07-06T17:45:28.237Z,74.20
2018-07-06T17:47:57.337Z,74.80
2018-07-06T17:50:25.784Z,75.40
2018-07-06T17:52:55.048Z,73.90
2018-07-06T17:55:23.247Z,74.30
2018-07-06T17:57:51.684Z,74.60
2018-07-06T18:00:20.678Z,73.90
2018-07-06T18:02:54.807Z,73.90
2018-07-06T18:05:24.329Z,73.60
2018-07-06T18:07:52.682Z,74.00
2018-07-06T18:10:20.775Z,74.80
2018-07-06T18:12:49.246Z,73.50
2018-07-06T18:15:17.481Z,72.90
2018-07-06T18:17:47.595Z,72.50
2018-07-06T18:20:16.049Z,71.90
2018-07-06T18:22:44.609Z,72.00
2018-07-06T18:25:12.732Z,72.30
2018-07-06T18:27:41.213Z,72.00
2018-07-06T18:30:09.730Z,71.90
2018-07-06T18:32:38.624Z,71.60
2018-07-06T18:35:08.091Z,71.40
2018-07-06T18:37:36.793Z,72.10
2018-07-06T18:40:05.277Z,72.20
2018-07-06T18:42:33.680Z,71.80
2018-07-06T18:45:02.681Z,71.40
2018-07-06T18:47:30.831Z,71.10
2018-07-06T18:52:35.069Z,70.50
2018-07-06T18:55:03.737Z,71.10
2018-07-06T18:57:32.951Z,71.40
2018-07-06T19:00:01.860Z,71.40
2018-07-06T19:02:31.416Z,71.80
2018-07-06T19:05:00.693Z,71.90
2018-07-06T19:07:30.516Z,72.20
2018-07-06T19:10:02.870Z,72.50
2018-07-06T19:15:03.107Z,73.20
2018-07-06T19:17:33.418Z,73.30
2018-07-06T19:20:03.098Z,73.30
2018-07-06T19:22:32.536Z,73.80
2018-07-06T19:25:02.106Z,74.10
2018-07-06T19:27:31.435Z,74.10
2018-07-06T19:30:03.244Z,74.20
2018-07-06T19:32:33.610Z,74.40
2018-07-06T19:35:05.624Z,74.50
2018-07-06T19:37:34.234Z,74.70
2018-07-06T19:40:02.560Z,74.60
2018-07-06T19:45:00.685Z,75.00
2018-07-06T19:47:28.838Z,75.60
2018-07-06T19:50:00.225Z,75.50
2018-07-06T19:52:28.413Z,76.10
2018-07-06T19:54:57.965Z,75.90
2018-07-06T19:57:26.282Z,76.20
2018-07-06T19:59:54.941Z,76.40
2018-07-06T20:02:24.603Z,76.70
2018-07-06T20:04:53.241Z,76.90
2018-07-06T20:07:24.000Z,77.20
2018-07-06T20:09:53.170Z,77.40
2018-07-06T20:12:22.748Z,77.50
2018-07-06T20:14:51.626Z,77.60
2018-07-06T20:19:51.289Z,77.50
2018-07-06T20:22:20.085Z,77.70
2018-07-06T20:24:48.475Z,77.80
2018-07-06T20:27:20.413Z,78.20
2018-07-06T20:30:00.618Z,77.50
2018-07-06T20:32:32.314Z,77.40
2018-07-06T20:35:01.853Z,77.20
2018-07-06T20:37:31.260Z,77.20
2018-07-06T20:40:03.228Z,77.10
2018-07-06T20:42:32.810Z,76.90
2018-07-06T20:45:02.650Z,76.70
2018-07-06T20:47:33.962Z,77.00
2018-07-06T20:50:03.062Z,76.90
2018-07-06T20:52:37.213Z,76.60
2018-07-06T20:55:10.769Z,76.70
2018-07-06T20:57:39.246Z,76.50
2018-07-06T21:00:09.214Z,76.40
2018-07-06T21:02:38.619Z,76.80
2018-07-06T21:05:08.173Z,76.90
2018-07-06T21:07:36.744Z,77.30
2018-07-06T21:10:05.569Z,77.20
2018-07-06T21:12:35.498Z,76.80
2018-07-06T21:15:03.861Z,76.90
2018-07-06T21:17:38.872Z,77.30
2018-07-06T21:20:11.387Z,77.10
2018-07-06T21:22:45.937Z,77.10
2018-07-06T21:25:24.331Z,77.60
2018-07-06T21:27:55.223Z,77.80
2018-07-06T21:30:26.222Z,78.20
2018-07-06T21:33:01.315Z,78.20
2018-07-06T21:35:33.737Z,78.20
2018-07-06T21:38:05.178Z,77.90
2018-07-06T21:44:30.880Z,78.20
2018-07-06T21:47:01.463Z,78.00
2018-07-06T21:49:32.094Z,78.20
2018-07-06T21:52:02.908Z,78.40
2018-07-06T21:54:31.842Z,79.10
2018-07-06T21:57:00.637Z,79.00
2018-07-06T21:59:31.991Z,79.50
2018-07-06T22:02:07.529Z,79.90
2018-07-06T22:04:37.087Z,80.30
2018-07-06T22:07:07.551Z,80.40
2018-07-06T22:09:36.558Z,80.20
2018-07-06T22:12:08.177Z,80.40
2018-07-06T22:14:38.565Z,79.90
2018-07-06T22:17:08.291Z,79.00
2018-07-06T22:19:36.717Z,78.50
2018-07-06T22:22:05.601Z,77.80
2018-07-06T22:24:38.423Z,76.90
2018-07-06T22:27:07.926Z,76.10
2018-07-06T22:29:38.291Z,75.80
2018-07-06T22:32:09.010Z,76.30
2018-07-06T22:37:08.756Z,76.00
2018-07-06T22:39:37.807Z,75.30
2018-07-06T22:44:33.875Z,74.80
2018-07-06T22:47:02.219Z,75.00
2018-07-06T22:49:30.973Z,76.70
2018-07-06T22:51:59.762Z,83.50
2018-07-06T22:54:28.358Z,87.50
2018-07-06T22:56:57.087Z,87.90
2018-07-06T22:59:25.773Z,88.70
2018-07-06T23:01:54.418Z,89.50
2018-07-06T23:04:26.205Z,89.80
2018-07-06T23:06:54.841Z,89.10
2018-07-06T23:09:24.051Z,90.30
2018-07-06T23:11:52.902Z,89.30
2018-07-06T23:14:21.466Z,90.10
2018-07-06T23:16:50.663Z,90.50
2018-07-06T23:19:19.882Z,86.80
2018-07-06T23:21:48.253Z,84.70
2018-07-06T23:24:16.961Z,85.30
2018-07-06T23:26:45.203Z,88.50
2018-07-06T23:29:14.006Z,91.10
2018-07-06T23:31:42.597Z,91.20
2018-07-06T23:34:10.774Z,87.50
2018-07-06T23:36:38.823Z,90.50
2018-07-06T23:39:06.982Z,91.70
2018-07-06T23:41:35.056Z,91.80
2018-07-06T23:44:04.513Z,93.10
2018-07-06T23:46:33.150Z,93.90
2018-07-06T23:49:01.156Z,94.20
2018-07-06T23:51:30.369Z,94.40
2018-07-06T23:53:58.442Z,94.50
2018-07-06T23:56:26.645Z,94.50
2018-07-06T23:58:55.097Z,94.80
